Etusivu
METAR-TAF:

METAR-TAF

Lentoasemat :

Sokolin lentoasema

Magadan, Venäjä

Leveyspiiri: 59-33N, Pituuspiiri: 150-47E, korkeus merenpinnasta: 118 m

Tämänhetkinen sää

Tämä raportti tehtiin 31 minuuttia sitten, kello 08.30 UTC
Tuuli 2 kn idästä
Lämpötila -28°C
Kosteus 68%
Ilmanpaine 1017 hPa
Näkyvyys 10 km tai enemmän

METAR: UHMM 200830Z 09001MPS 9999 NSC M28/M32 Q1017 R10/82//55 NOSIG RMK QFE748

Aika: 20:01 (09:01 UTC)

Sääennuste

Tämä raportti tehtiin 1 tunti ja 16 minuuttia sitten, kello 07.45 UTC
Ennuste voimassa 20. päivästä klo 09 UTC - 21. päivään klo 15 UTC
Tuuli 6 kn pohjoisesta/koillisesta puuskistuen 16 kn:hen
Näkyvyys 10 km tai enemmän

TAF: UHMM 200745Z 2009/2115 02003G08MPS 9999 NSC

Säähavainnot ja -ennusteet yli 4000 lentoasemalta (METAR- ja TAF-raportit).

Käytössä olevat sääasemat on merkitty karttaan keltaisilla ja punaisilla pisteillä.

Aseta hiiri pisteen päälle nähdäksesi sääaseman nimen.

Klikkaa sitten nähdäksesi säähavainnot ja -ennusteet.

Kartan vaihtaminen: klikkaa mustalla rastilla varustettuja vihreitä pisteitä, niin voit zoomata sisään; viivalla varustettua vihreää pistettä, niin voit zoomata ulos tai vihreitä nuolia, niin pääset viereisille kartoille.


METAR-TAF: